Meteo Giornale » Osservazioni meteo Stati Uniti (USA) » Hailey-Friedman Mem
ore: 00:55 - Osservazioni Meteo Hailey-Friedman Mem
Lat. 43° 30' N Lon. 114° 18' W Alt. 1620 metri s.l.m.
15 °C
Sereno
Temp. 24 Ore
4 °C
26 °C
Nord-Ovest
9.3 Km/h
Dew point 0 °C
Umidità 35 %
Visibilità 10 Km
Il sole sorge alle ore 07:01
Il sole tramonta alle ore 20:12
| Data e Ora | Cielo e Fenomeni | T °C | DP °C | Um. % | Pres. hPa | Vis. km | Vento km/h | |
|---|---|---|---|---|---|---|---|---|
| Oggi h: 00:55 | Sereno | 15 | 0 | 35 | 1018 | 10 | NO 9.3 | |
| Oggi h: 00:35 | Sereno | 16 | 0 | 33 | 1017 | 10 | N/NO 11.1 | |
| Oggi h: 00:15 | Sereno | 16 | 0 | 33 | 1017 | 10 | NO 13 | |
| Ieri h: 23:55 | Sereno | 15 | 1 | 38 | 1018 | 10 | NO 13 | |
| Ieri h: 23:35 | Sereno | 15 | 1 | 38 | 1018 | 10 | NO 13 | |
| Ieri h: 23:15 | Sereno | 14 | 3 | 47 | 1018 | 10 | O 7.4 | |
| Ieri h: 22:52 | Sereno | 17 | 0 | 31 | 1018 | 10 | N 5.5 | |
| Ieri h: 21:52 | Sereno | 15 | 3 | 44 | 1017 | 10 | O 11.1 | |
| Ieri h: 20:54 | Sereno | 14 | 6 | 58 | 1017 | 10 | N 0 | |
| Ieri h: 17:47 | Sereno | 24 | 1 | 22 | 1017 | 10 | SE 11.1 | |
| Ieri h: 16:50 | Sereno | 26 | -2 | 15 | 1017 | 10 | S/SE 14.8 | |
| Ieri h: 15:47 | Sereno | 24 | 0 | 20 | 1019 | 10 | E/SE 13 | |
| Ieri h: 14:55 | Sereno | 24 | -1 | 19 | 1019 | 10 | E/SE 18.5 | |
| Ieri h: 13:55 | Sereno | 22 | -1 | 21 | 1020 | 10 | E/SE 18.5 | |
| Ieri h: 12:55 | Sereno | 22 | -1 | 21 | 1020 | 10 | E/SE 18.5 | |
| Ieri h: 11:50 | Sereno | 21 | -4 | 18 | 1021 | 10 | S/SE 9.3 | |
| Ieri h: 10:50 | Sereno | 17 | -5 | 21 | 1021 | 10 | O/NO 13 | |
| Ieri h: 09:50 | Sereno | 13 | -4 | 30 | 1021 | 10 | O/NO 13 | |
| Ieri h: 08:50 | Sereno | 9 | -6 | 33 | 1022 | 10 | NO 18.5 | |
| Ieri h: 07:47 | Sereno | 5 | -5 | 48 | 1022 | 10 | N/NO 14.8 | |
| Ieri h: 06:50 | Sereno | 5 | -4 | 52 | 1021 | 10 | O/NO 18.5 | |
| Ieri h: 06:35 | Sereno | 5 | -4 | 52 | 1021 | 10 | NO 18.5 | |
| Ieri h: 06:15 | Sereno | 4 | -4 | 55 | 1021 | 10 | NO 16.7 | |
| Ieri h: 05:55 | Sereno | 5 | -3 | 56 | 1021 | 10 | NO 14.8 | |
| Ieri h: 05:35 | Sereno | 5 | -4 | 52 | 1021 | 10 | NO 14.8 | |
| Ieri h: 05:15 | Sereno | 5 | -4 | 52 | 1021 | 10 | NO 14.8 | |
| Ieri h: 04:55 | Sereno | 5 | -4 | 52 | 1021 | 10 | NO 14.8 | |
| Ieri h: 04:35 | Sereno | 6 | -3 | 52 | 1021 | 10 | NO 14.8 | |
| Ieri h: 04:15 | Sereno | 6 | -3 | 52 | 1021 | 10 | NO 13 | |
| Ieri h: 03:55 | Sereno | 6 | -3 | 52 | 1021 | 10 | NO 13 | |
| Ieri h: 03:35 | Sereno | 7 | -4 | 45 | 1020 | 10 | N/NO 11.1 | |
| Ieri h: 03:15 | Sereno | 7 | -3 | 48 | 1020 | 10 | NO 11.1 | |
| Ieri h: 02:55 | Sereno | 7 | -4 | 45 | 1020 | 10 | O/NO 16.7 | |
| Ieri h: 02:35 | Sereno | 7 | -4 | 45 | 1020 | 10 | NO 14.8 | |
| Ieri h: 02:15 | Sereno | 7 | -3 | 48 | 1020 | 10 | NO 13 | |
| Ieri h: 01:55 | Sereno | 8 | -4 | 42 | 1020 | 10 | N/NO 14.8 | |
| Ieri h: 01:35 | Sereno | 8 | -5 | 39 | 1020 | 10 | O/NO 14.8 | |



